Grayling, MI

3:44 PM EDT on April 18, 2015 (GMT -0400)
AuSable River Estates | | Change Station
CLOSE
Current Station
Personal Weather Station
Location: Grayling, MI
Elevation: 1155 ft
Nearby Weather Stations

Elev 1155 ft 44.69 °N, 84.75 °W | Updated 8 minutes ago

Clear
Clear
66.0 °F
Feels Like 66.0 °F
N
2.2
Wind Variable Wind from West

Today
High -- | Low -- °F
--% Chance of Precip.
Yesterday
High -- | Low -- °F
Precip. -- in
6:50 AM 8:27 PM
New Moon, 0% visible
Pressure 30.16 in
Visibility 10.0 miles
Clouds Clear
Dew Point 17 °F
Humidity 15%
Rainfall 0.00 in
Snow Depth Not available.
UV 7 out of 12
Pollen 10.90 out of 12
Air Quality Not available.
Flu Activity Regional
METAR KGOV 181934Z AUTO 12003KT 10SM CLR 18/M09 A3016 RMK AO2 T01751090

More Conditions Fewer Conditions

Pressure 30.16 in
Visibility 10.0 miles
Clouds Clear
Dew Point 17 °F
Humidity 15%
Rainfall 0.00 in
Snow Depth Not available.
UV 7 out of 12
Pollen 10.90 out of 12
Air Quality Not available.
Flu Activity Regional
METAR KGOV 181934Z AUTO 12003KT 10SM CLR 18/M09 A3016 RMK AO2 T01751090

More Conditions Fewer Conditions

Nowcast | as of 3:00 PM EDT on April 18, 2015

Clear. East winds 9 mph. Clear. East winds 10 mph. At 8 PM...clear. Temperature 55. East winds 9 mph. Clear. Light winds.

×

10-Day Weather Forecast

Almanac

Astronomy

Apr. 18, 2015 Rise Set
Actual Time
Civil Twilight
Nautical Twilight
Astronomical Twilight
Moon
Length of Visible Light
Length of Day
Tomorrow will be .
, % of the Moon is Illuminated

Today's Extremes

State Highs State Lows

Community

WunderPhotos

Upload Photos

1,814,504 photos uploaded!

WunderBlogs® & News

Nearby

Air Quality

  Air Quality AQ Index Pollutant
Not available.

Snow Depth

Station Depth Elevation

Earthquake Activity

City Distance Mag. Time & Date
Minimum magnitude displayed is 2.5.

Coastal Water Temperatures

Place Temperature

Stations

Nearby Weather Stations

Station Location Temp. Windchill Dew Point Humidity Wind Precip. Elev Updated Type